sensor_id;sensor_type;location;lat;lon;timestamp;P1;durP1;ratioP1;P2;durP2;ratioP2
10851;SDS011;5479;52.046;6.314;2022-07-11T00:00:53;9.87;;;3.30;;
10851;SDS011;5479;52.046;6.314;2022-07-11T00:03:21;5.20;;;2.83;;
10851;SDS011;5479;52.046;6.314;2022-07-11T00:05:48;6.37;;;3.40;;
10851;SDS011;5479;52.046;6.314;2022-07-11T00:08:18;7.73;;;2.97;;
10851;SDS011;5479;52.046;6.314;2022-07-11T00:10:45;7.40;;;2.70;;
10851;SDS011;5479;52.046;6.314;2022-07-11T00:13:13;6.67;;;2.70;;
10851;SDS011;5479;52.046;6.314;2022-07-11T00:15:41;6.47;;;2.50;;
10851;SDS011;5479;52.046;6.314;2022-07-11T00:18:09;6.00;;;2.60;;
10851;SDS011;5479;52.046;6.314;2022-07-11T00:20:38;4.53;;;2.00;;
10851;SDS011;5479;52.046;6.314;2022-07-11T00:23:05;4.93;;;2.00;;
10851;SDS011;5479;52.046;6.314;2022-07-11T00:25:34;4.57;;;1.80;;
10851;SDS011;5479;52.046;6.314;2022-07-11T00:28:02;5.03;;;2.00;;
10851;SDS011;5479;52.046;6.314;2022-07-11T00:30:31;3.17;;;1.87;;
10851;SDS011;5479;52.046;6.314;2022-07-11T00:32:58;3.90;;;1.83;;
10851;SDS011;5479;52.046;6.314;2022-07-11T00:35:26;5.13;;;1.90;;
10851;SDS011;5479;52.046;6.314;2022-07-11T00:37:54;4.53;;;2.00;;
10851;SDS011;5479;52.046;6.314;2022-07-11T00:40:22;3.80;;;1.70;;
10851;SDS011;5479;52.046;6.314;2022-07-11T00:42:51;4.57;;;1.90;;
10851;SDS011;5479;52.046;6.314;2022-07-11T00:45:19;2.27;;;1.60;;
10851;SDS011;5479;52.046;6.314;2022-07-11T00:47:46;3.87;;;1.70;;
10851;SDS011;5479;52.046;6.314;2022-07-11T00:50:14;4.30;;;2.00;;
10851;SDS011;5479;52.046;6.314;2022-07-11T00:52:43;4.93;;;1.97;;
10851;SDS011;5479;52.046;6.314;2022-07-11T00:55:12;3.23;;;1.80;;
10851;SDS011;5479;52.046;6.314;2022-07-11T00:57:40;4.70;;;1.87;;
10851;SDS011;5479;52.046;6.314;2022-07-11T01:00:11;3.93;;;1.80;;
10851;SDS011;5479;52.046;6.314;2022-07-11T01:02:39;4.80;;;2.10;;
10851;SDS011;5479;52.046;6.314;2022-07-11T01:05:07;2.83;;;1.67;;
10851;SDS011;5479;52.046;6.314;2022-07-11T01:07:35;3.73;;;1.80;;
10851;SDS011;5479;52.046;6.314;2022-07-11T01:10:03;3.73;;;1.80;;
10851;SDS011;5479;52.046;6.314;2022-07-11T01:12:32;4.57;;;1.90;;
10851;SDS011;5479;52.046;6.314;2022-07-11T01:15:01;6.17;;;2.20;;
10851;SDS011;5479;52.046;6.314;2022-07-11T01:17:33;6.20;;;2.17;;
10851;SDS011;5479;52.046;6.314;2022-07-11T01:20:01;3.47;;;2.00;;
10851;SDS011;5479;52.046;6.314;2022-07-11T01:22:29;5.07;;;1.90;;
10851;SDS011;5479;52.046;6.314;2022-07-11T01:25:04;6.50;;;2.50;;
10851;SDS011;5479;52.046;6.314;2022-07-11T01:27:33;3.50;;;1.93;;
10851;SDS011;5479;52.046;6.314;2022-07-11T01:30:04;5.30;;;2.27;;
10851;SDS011;5479;52.046;6.314;2022-07-11T01:32:32;4.40;;;1.83;;
10851;SDS011;5479;52.046;6.314;2022-07-11T01:35:00;6.63;;;2.27;;
10851;SDS011;5479;52.046;6.314;2022-07-11T01:37:28;6.30;;;2.17;;
10851;SDS011;5479;52.046;6.314;2022-07-11T01:39:56;4.37;;;2.10;;
10851;SDS011;5479;52.046;6.314;2022-07-11T01:42:25;5.70;;;2.17;;
10851;SDS011;5479;52.046;6.314;2022-07-11T01:44:53;5.17;;;1.80;;
10851;SDS011;5479;52.046;6.314;2022-07-11T01:47:21;4.13;;;2.20;;
10851;SDS011;5479;52.046;6.314;2022-07-11T01:49:49;5.87;;;2.23;;
10851;SDS011;5479;52.046;6.314;2022-07-11T01:52:17;5.77;;;2.30;;
10851;SDS011;5479;52.046;6.314;2022-07-11T01:54:45;7.23;;;2.50;;
10851;SDS011;5479;52.046;6.314;2022-07-11T01:57:12;5.20;;;2.20;;
10851;SDS011;5479;52.046;6.314;2022-07-11T01:59:42;3.70;;;1.90;;
10851;SDS011;5479;52.046;6.314;2022-07-11T02:02:09;4.47;;;2.43;;
10851;SDS011;5479;52.046;6.314;2022-07-11T02:04:38;5.63;;;2.17;;
10851;SDS011;5479;52.046;6.314;2022-07-11T02:07:05;5.30;;;2.33;;
10851;SDS011;5479;52.046;6.314;2022-07-11T02:09:34;4.30;;;2.60;;
10851;SDS011;5479;52.046;6.314;2022-07-11T02:12:02;6.27;;;2.17;;
10851;SDS011;5479;52.046;6.314;2022-07-11T02:14:30;3.87;;;2.27;;
10851;SDS011;5479;52.046;6.314;2022-07-11T02:16:59;7.67;;;2.70;;
10851;SDS011;5479;52.046;6.314;2022-07-11T02:19:27;5.30;;;2.57;;
10851;SDS011;5479;52.046;6.314;2022-07-11T02:21:55;5.13;;;2.30;;
10851;SDS011;5479;52.046;6.314;2022-07-11T02:24:22;6.03;;;2.57;;
10851;SDS011;5479;52.046;6.314;2022-07-11T02:26:50;6.07;;;2.57;;
10851;SDS011;5479;52.046;6.314;2022-07-11T02:29:18;6.50;;;2.37;;
10851;SDS011;5479;52.046;6.314;2022-07-11T02:31:48;6.63;;;2.60;;
10851;SDS011;5479;52.046;6.314;2022-07-11T02:34:17;7.57;;;2.70;;
10851;SDS011;5479;52.046;6.314;2022-07-11T02:36:45;4.23;;;2.10;;
10851;SDS011;5479;52.046;6.314;2022-07-11T02:39:13;4.37;;;2.27;;
10851;SDS011;5479;52.046;6.314;2022-07-11T02:41:41;5.57;;;2.50;;
10851;SDS011;5479;52.046;6.314;2022-07-11T02:44:08;6.43;;;2.60;;
10851;SDS011;5479;52.046;6.314;2022-07-11T02:46:36;5.93;;;2.70;;
10851;SDS011;5479;52.046;6.314;2022-07-11T02:49:04;5.77;;;2.37;;
10851;SDS011;5479;52.046;6.314;2022-07-11T02:51:33;4.20;;;2.10;;
10851;SDS011;5479;52.046;6.314;2022-07-11T02:54:01;5.83;;;2.30;;
10851;SDS011;5479;52.046;6.314;2022-07-11T02:56:29;7.00;;;2.70;;
10851;SDS011;5479;52.046;6.314;2022-07-11T02:58:57;5.40;;;2.40;;
10851;SDS011;5479;52.046;6.314;2022-07-11T03:01:24;4.27;;;2.43;;
10851;SDS011;5479;52.046;6.314;2022-07-11T03:03:53;4.23;;;2.37;;
10851;SDS011;5479;52.046;6.314;2022-07-11T03:06:21;6.50;;;2.40;;
10851;SDS011;5479;52.046;6.314;2022-07-11T03:08:50;4.63;;;2.47;;
10851;SDS011;5479;52.046;6.314;2022-07-11T03:11:18;4.63;;;2.53;;
10851;SDS011;5479;52.046;6.314;2022-07-11T03:13:46;6.83;;;2.50;;
10851;SDS011;5479;52.046;6.314;2022-07-11T03:16:13;6.27;;;2.83;;
10851;SDS011;5479;52.046;6.314;2022-07-11T03:18:41;3.90;;;2.40;;
10851;SDS011;5479;52.046;6.314;2022-07-11T03:21:09;4.60;;;2.50;;
10851;SDS011;5479;52.046;6.314;2022-07-11T03:23:37;4.57;;;2.60;;
10851;SDS011;5479;52.046;6.314;2022-07-11T03:26:06;5.37;;;2.40;;
10851;SDS011;5479;52.046;6.314;2022-07-11T03:28:34;3.77;;;2.03;;
10851;SDS011;5479;52.046;6.314;2022-07-11T03:31:02;4.13;;;2.53;;
10851;SDS011;5479;52.046;6.314;2022-07-11T03:33:30;4.27;;;2.00;;
10851;SDS011;5479;52.046;6.314;2022-07-11T03:35:57;3.27;;;2.00;;
10851;SDS011;5479;52.046;6.314;2022-07-11T03:38:25;3.10;;;1.90;;
10851;SDS011;5479;52.046;6.314;2022-07-11T03:40:54;3.80;;;1.87;;
10851;SDS011;5479;52.046;6.314;2022-07-11T03:43:24;3.30;;;1.97;;
10851;SDS011;5479;52.046;6.314;2022-07-11T03:45:51;4.07;;;2.17;;
10851;SDS011;5479;52.046;6.314;2022-07-11T03:48:19;2.70;;;1.93;;
10851;SDS011;5479;52.046;6.314;2022-07-11T03:50:47;3.63;;;1.80;;
10851;SDS011;5479;52.046;6.314;2022-07-11T03:53:15;3.47;;;1.87;;
10851;SDS011;5479;52.046;6.314;2022-07-11T03:55:43;3.23;;;1.87;;
10851;SDS011;5479;52.046;6.314;2022-07-11T03:58:11;3.77;;;2.03;;
10851;SDS011;5479;52.046;6.314;2022-07-11T04:00:40;3.43;;;1.90;;
10851;SDS011;5479;52.046;6.314;2022-07-11T04:03:08;3.60;;;2.03;;
10851;SDS011;5479;52.046;6.314;2022-07-11T04:05:36;2.70;;;1.90;;
10851;SDS011;5479;52.046;6.314;2022-07-11T04:08:04;3.43;;;2.20;;
10851;SDS011;5479;52.046;6.314;2022-07-11T04:10:32;3.93;;;2.10;;
10851;SDS011;5479;52.046;6.314;2022-07-11T04:13:00;2.57;;;1.80;;
10851;SDS011;5479;52.046;6.314;2022-07-11T04:15:28;4.23;;;2.17;;
10851;SDS011;5479;52.046;6.314;2022-07-11T04:17:57;2.93;;;2.00;;
10851;SDS011;5479;52.046;6.314;2022-07-11T04:20:25;3.13;;;2.00;;
10851;SDS011;5479;52.046;6.314;2022-07-11T04:22:53;3.63;;;2.03;;
10851;SDS011;5479;52.046;6.314;2022-07-11T04:25:20;4.47;;;2.30;;
10851;SDS011;5479;52.046;6.314;2022-07-11T04:27:48;4.37;;;2.03;;
10851;SDS011;5479;52.046;6.314;2022-07-11T04:30:16;3.23;;;2.03;;
10851;SDS011;5479;52.046;6.314;2022-07-11T04:32:44;4.33;;;2.07;;
10851;SDS011;5479;52.046;6.314;2022-07-11T04:35:13;3.57;;;2.10;;
10851;SDS011;5479;52.046;6.314;2022-07-11T04:37:41;2.90;;;1.97;;
10851;SDS011;5479;52.046;6.314;2022-07-11T04:40:10;5.27;;;2.10;;
10851;SDS011;5479;52.046;6.314;2022-07-11T04:42:39;5.77;;;2.50;;
10851;SDS011;5479;52.046;6.314;2022-07-11T04:45:07;3.97;;;2.47;;
10851;SDS011;5479;52.046;6.314;2022-07-11T04:47:36;4.53;;;2.73;;
10851;SDS011;5479;52.046;6.314;2022-07-11T04:50:04;5.73;;;2.60;;
10851;SDS011;5479;52.046;6.314;2022-07-11T04:52:33;3.60;;;2.20;;
10851;SDS011;5479;52.046;6.314;2022-07-11T04:55:01;4.73;;;2.77;;
10851;SDS011;5479;52.046;6.314;2022-07-11T04:57:29;7.63;;;3.10;;
10851;SDS011;5479;52.046;6.314;2022-07-11T04:59:57;6.27;;;2.83;;
10851;SDS011;5479;52.046;6.314;2022-07-11T05:02:25;5.07;;;2.60;;
10851;SDS011;5479;52.046;6.314;2022-07-11T05:04:55;6.60;;;2.90;;
10851;SDS011;5479;52.046;6.314;2022-07-11T05:07:23;4.93;;;2.60;;
10851;SDS011;5479;52.046;6.314;2022-07-11T05:09:52;4.07;;;2.50;;
10851;SDS011;5479;52.046;6.314;2022-07-11T05:12:20;4.80;;;2.40;;
10851;SDS011;5479;52.046;6.314;2022-07-11T05:14:48;3.83;;;2.40;;
10851;SDS011;5479;52.046;6.314;2022-07-11T05:17:17;4.93;;;2.63;;
10851;SDS011;5479;52.046;6.314;2022-07-11T05:19:45;3.80;;;2.27;;
10851;SDS011;5479;52.046;6.314;2022-07-11T05:22:13;4.70;;;2.50;;
10851;SDS011;5479;52.046;6.314;2022-07-11T05:24:41;5.00;;;2.43;;
10851;SDS011;5479;52.046;6.314;2022-07-11T05:27:10;4.70;;;2.30;;
10851;SDS011;5479;52.046;6.314;2022-07-11T05:29:38;3.60;;;2.30;;
10851;SDS011;5479;52.046;6.314;2022-07-11T05:32:06;5.67;;;2.87;;
10851;SDS011;5479;52.046;6.314;2022-07-11T05:34:34;2.87;;;1.87;;
10851;SDS011;5479;52.046;6.314;2022-07-11T05:37:03;4.87;;;2.10;;
10851;SDS011;5479;52.046;6.314;2022-07-11T05:39:31;3.53;;;2.00;;
10851;SDS011;5479;52.046;6.314;2022-07-11T05:41:59;5.13;;;2.10;;
10851;SDS011;5479;52.046;6.314;2022-07-11T05:44:28;3.40;;;1.70;;
10851;SDS011;5479;52.046;6.314;2022-07-11T05:46:59;3.83;;;1.60;;
10851;SDS011;5479;52.046;6.314;2022-07-11T05:49:27;3.97;;;1.80;;
10851;SDS011;5479;52.046;6.314;2022-07-11T05:51:55;1.97;;;1.50;;
10851;SDS011;5479;52.046;6.314;2022-07-11T05:54:23;2.47;;;1.67;;
10851;SDS011;5479;52.046;6.314;2022-07-11T05:56:51;3.07;;;1.73;;
10851;SDS011;5479;52.046;6.314;2022-07-11T05:59:19;4.20;;;1.70;;
10851;SDS011;5479;52.046;6.314;2022-07-11T06:01:48;4.20;;;1.67;;
10851;SDS011;5479;52.046;6.314;2022-07-11T06:04:16;2.53;;;1.63;;
10851;SDS011;5479;52.046;6.314;2022-07-11T06:06:44;1.90;;;1.35;;
10851;SDS011;5479;52.046;6.314;2022-07-11T06:09:11;2.22;;;1.20;;
10851;SDS011;5479;52.046;6.314;2022-07-11T06:11:39;1.75;;;1.23;;
10851;SDS011;5479;52.046;6.314;2022-07-11T06:14:07;1.48;;;1.20;;
10851;SDS011;5479;52.046;6.314;2022-07-11T06:16:36;1.38;;;1.25;;
10851;SDS011;5479;52.046;6.314;2022-07-11T06:19:05;1.52;;;1.10;;
10851;SDS011;5479;52.046;6.314;2022-07-11T06:21:33;2.17;;;1.20;;
10851;SDS011;5479;52.046;6.314;2022-07-11T06:24:00;2.13;;;1.35;;
10851;SDS011;5479;52.046;6.314;2022-07-11T06:26:28;2.30;;;1.30;;
10851;SDS011;5479;52.046;6.314;2022-07-11T06:28:56;1.50;;;1.40;;
10851;SDS011;5479;52.046;6.314;2022-07-11T06:31:24;3.08;;;1.40;;
10851;SDS011;5479;52.046;6.314;2022-07-11T06:33:52;1.48;;;1.38;;
10851;SDS011;5479;52.046;6.314;2022-07-11T06:36:24;2.13;;;1.40;;
10851;SDS011;5479;52.046;6.314;2022-07-11T06:38:52;3.95;;;1.60;;
10851;SDS011;5479;52.046;6.314;2022-07-11T06:41:20;2.50;;;1.30;;
10851;SDS011;5479;52.046;6.314;2022-07-11T06:43:49;2.58;;;1.50;;
10851;SDS011;5479;52.046;6.314;2022-07-11T06:46:17;3.75;;;1.52;;
10851;SDS011;5479;52.046;6.314;2022-07-11T06:48:45;3.33;;;1.60;;
10851;SDS011;5479;52.046;6.314;2022-07-11T06:51:13;3.17;;;1.70;;
10851;SDS011;5479;52.046;6.314;2022-07-11T06:53:43;3.85;;;1.58;;
10851;SDS011;5479;52.046;6.314;2022-07-11T06:56:10;2.20;;;1.65;;
10851;SDS011;5479;52.046;6.314;2022-07-11T06:58:38;3.67;;;1.80;;
10851;SDS011;5479;52.046;6.314;2022-07-11T07:01:06;5.00;;;1.90;;
10851;SDS011;5479;52.046;6.314;2022-07-11T07:03:35;2.88;;;1.67;;
10851;SDS011;5479;52.046;6.314;2022-07-11T07:06:03;2.63;;;1.60;;
10851;SDS011;5479;52.046;6.314;2022-07-11T07:08:32;3.55;;;1.70;;
10851;SDS011;5479;52.046;6.314;2022-07-11T07:11:02;3.38;;;1.60;;
10851;SDS011;5479;52.046;6.314;2022-07-11T07:13:30;2.78;;;1.58;;
10851;SDS011;5479;52.046;6.314;2022-07-11T07:15:58;3.53;;;1.90;;
10851;SDS011;5479;52.046;6.314;2022-07-11T07:18:25;2.15;;;1.45;;
10851;SDS011;5479;52.046;6.314;2022-07-11T07:20:53;4.47;;;1.90;;
10851;SDS011;5479;52.046;6.314;2022-07-11T07:23:22;3.13;;;1.65;;
10851;SDS011;5479;52.046;6.314;2022-07-11T07:25:50;4.80;;;1.88;;
10851;SDS011;5479;52.046;6.314;2022-07-11T07:28:19;2.92;;;1.58;;
10851;SDS011;5479;52.046;6.314;2022-07-11T07:30:47;4.05;;;1.70;;
10851;SDS011;5479;52.046;6.314;2022-07-11T07:33:15;2.65;;;1.67;;
10851;SDS011;5479;52.046;6.314;2022-07-11T07:35:43;3.35;;;1.67;;
10851;SDS011;5479;52.046;6.314;2022-07-11T07:38:11;2.75;;;1.70;;
10851;SDS011;5479;52.046;6.314;2022-07-11T07:40:39;3.85;;;1.90;;
10851;SDS011;5479;52.046;6.314;2022-07-11T07:43:07;4.72;;;1.73;;
10851;SDS011;5479;52.046;6.314;2022-07-11T07:45:36;3.83;;;1.63;;
10851;SDS011;5479;52.046;6.314;2022-07-11T07:48:04;3.53;;;1.73;;
10851;SDS011;5479;52.046;6.314;2022-07-11T07:50:32;2.92;;;1.80;;
10851;SDS011;5479;52.046;6.314;2022-07-11T07:53:00;2.88;;;1.80;;
10851;SDS011;5479;52.046;6.314;2022-07-11T07:55:28;3.17;;;1.85;;
10851;SDS011;5479;52.046;6.314;2022-07-11T07:57:56;3.25;;;2.03;;
10851;SDS011;5479;52.046;6.314;2022-07-11T08:00:24;2.53;;;1.60;;
10851;SDS011;5479;52.046;6.314;2022-07-11T08:03:10;3.20;;;1.80;;
10851;SDS011;5479;52.046;6.314;2022-07-11T08:05:38;3.22;;;1.80;;
10851;SDS011;5479;52.046;6.314;2022-07-11T08:08:06;4.40;;;1.60;;
10851;SDS011;5479;52.046;6.314;2022-07-11T08:10:35;3.38;;;1.70;;
10851;SDS011;5479;52.046;6.314;2022-07-11T08:13:02;3.05;;;1.90;;
10851;SDS011;5479;52.046;6.314;2022-07-11T08:15:30;3.20;;;1.95;;
10851;SDS011;5479;52.046;6.314;2022-07-11T08:17:59;2.95;;;2.00;;
10851;SDS011;5479;52.046;6.314;2022-07-11T08:20:28;2.00;;;1.58;;
10851;SDS011;5479;52.046;6.314;2022-07-11T08:22:58;2.72;;;1.70;;
10851;SDS011;5479;52.046;6.314;2022-07-11T08:25:27;3.35;;;1.58;;
10851;SDS011;5479;52.046;6.314;2022-07-11T08:27:54;3.30;;;1.63;;
10851;SDS011;5479;52.046;6.314;2022-07-11T08:30:22;2.80;;;1.70;;
10851;SDS011;5479;52.046;6.314;2022-07-11T08:32:50;2.45;;;1.50;;
10851;SDS011;5479;52.046;6.314;2022-07-11T08:35:18;2.30;;;1.33;;
10851;SDS011;5479;52.046;6.314;2022-07-11T08:37:47;2.53;;;1.52;;
10851;SDS011;5479;52.046;6.314;2022-07-11T08:40:15;2.80;;;1.52;;
10851;SDS011;5479;52.046;6.314;2022-07-11T08:42:43;3.42;;;1.50;;
10851;SDS011;5479;52.046;6.314;2022-07-11T08:45:12;2.10;;;1.70;;
10851;SDS011;5479;52.046;6.314;2022-07-11T08:47:41;3.33;;;1.60;;
10851;SDS011;5479;52.046;6.314;2022-07-11T08:50:10;3.50;;;1.40;;
10851;SDS011;5479;52.046;6.314;2022-07-11T08:52:39;1.73;;;1.30;;
10851;SDS011;5479;52.046;6.314;2022-07-11T08:55:09;2.17;;;1.30;;
10851;SDS011;5479;52.046;6.314;2022-07-11T08:57:37;1.98;;;1.15;;
10851;SDS011;5479;52.046;6.314;2022-07-11T09:00:05;2.08;;;1.20;;
10851;SDS011;5479;52.046;6.314;2022-07-11T09:02:35;2.30;;;1.10;;
10851;SDS011;5479;52.046;6.314;2022-07-11T09:05:04;1.42;;;1.10;;
10851;SDS011;5479;52.046;6.314;2022-07-11T09:07:33;1.67;;;1.17;;
10851;SDS011;5479;52.046;6.314;2022-07-11T09:10:02;1.88;;;1.30;;
10851;SDS011;5479;52.046;6.314;2022-07-11T09:12:31;1.73;;;1.05;;
10851;SDS011;5479;52.046;6.314;2022-07-11T09:14:59;1.08;;;1.00;;
10851;SDS011;5479;52.046;6.314;2022-07-11T09:17:27;2.42;;;1.20;;
10851;SDS011;5479;52.046;6.314;2022-07-11T09:19:56;2.70;;;1.20;;
10851;SDS011;5479;52.046;6.314;2022-07-11T09:22:24;1.40;;;1.17;;
10851;SDS011;5479;52.046;6.314;2022-07-11T09:25:10;2.13;;;1.15;;
10851;SDS011;5479;52.046;6.314;2022-07-11T09:27:52;1.40;;;1.30;;
10851;SDS011;5479;52.046;6.314;2022-07-11T09:30:22;5.60;;;1.70;;
10851;SDS011;5479;52.046;6.314;2022-07-11T09:32:52;2.00;;;1.48;;
10851;SDS011;5479;52.046;6.314;2022-07-11T09:35:21;2.08;;;1.67;;
10851;SDS011;5479;52.046;6.314;2022-07-11T09:37:50;2.00;;;1.60;;
10851;SDS011;5479;52.046;6.314;2022-07-11T09:40:18;1.52;;;1.33;;
10851;SDS011;5479;52.046;6.314;2022-07-11T09:42:48;2.10;;;1.30;;
10851;SDS011;5479;52.046;6.314;2022-07-11T09:45:19;1.77;;;1.42;;
10851;SDS011;5479;52.046;6.314;2022-07-11T09:47:48;2.17;;;1.33;;
10851;SDS011;5479;52.046;6.314;2022-07-11T09:50:18;2.63;;;1.67;;
10851;SDS011;5479;52.046;6.314;2022-07-11T09:52:57;1.38;;;1.20;;
10851;SDS011;5479;52.046;6.314;2022-07-11T09:55:26;1.27;;;1.10;;
10851;SDS011;5479;52.046;6.314;2022-07-11T09:57:54;2.25;;;1.50;;
10851;SDS011;5479;52.046;6.314;2022-07-11T10:00:23;1.95;;;1.20;;
10851;SDS011;5479;52.046;6.314;2022-07-11T10:02:51;1.73;;;1.40;;
10851;SDS011;5479;52.046;6.314;2022-07-11T10:05:21;1.10;;;1.02;;
10851;SDS011;5479;52.046;6.314;2022-07-11T10:07:49;2.60;;;1.20;;
10851;SDS011;5479;52.046;6.314;2022-07-11T10:10:17;1.30;;;1.20;;
10851;SDS011;5479;52.046;6.314;2022-07-11T10:12:45;2.85;;;1.45;;
10851;SDS011;5479;52.046;6.314;2022-07-11T10:15:14;3.03;;;1.80;;
10851;SDS011;5479;52.046;6.314;2022-07-11T10:17:46;1.67;;;1.08;;
10851;SDS011;5479;52.046;6.314;2022-07-11T10:20:23;1.10;;;1.00;;
10851;SDS011;5479;52.046;6.314;2022-07-11T10:22:58;1.30;;;1.20;;
10851;SDS011;5479;52.046;6.314;2022-07-11T10:25:35;1.65;;;1.10;;
10851;SDS011;5479;52.046;6.314;2022-07-11T10:28:11;1.70;;;1.15;;
10851;SDS011;5479;52.046;6.314;2022-07-11T10:30:44;1.27;;;1.08;;
10851;SDS011;5479;52.046;6.314;2022-07-11T10:33:15;2.45;;;1.27;;
10851;SDS011;5479;52.046;6.314;2022-07-11T10:35:44;1.15;;;1.08;;
10851;SDS011;5479;52.046;6.314;2022-07-11T10:38:13;1.40;;;1.30;;
10851;SDS011;5479;52.046;6.314;2022-07-11T10:40:42;1.60;;;1.00;;
10851;SDS011;5479;52.046;6.314;2022-07-11T10:43:13;1.17;;;1.08;;
10851;SDS011;5479;52.046;6.314;2022-07-11T10:45:55;2.42;;;1.48;;
10851;SDS011;5479;52.046;6.314;2022-07-11T10:48:27;1.13;;;0.70;;
10851;SDS011;5479;52.046;6.314;2022-07-11T10:53:50;1.83;;;0.98;;
10851;SDS011;5479;52.046;6.314;2022-07-11T10:59:13;1.38;;;1.00;;
10851;SDS011;5479;52.046;6.314;2022-07-11T11:02:02;1.17;;;1.13;;
10851;SDS011;5479;52.046;6.314;2022-07-11T11:04:43;1.20;;;0.88;;
10851;SDS011;5479;52.046;6.314;2022-07-11T11:10:00;1.25;;;0.88;;
10851;SDS011;5479;52.046;6.314;2022-07-11T11:15:39;1.67;;;1.08;;
10851;SDS011;5479;52.046;6.314;2022-07-11T11:21:19;1.25;;;0.90;;
10851;SDS011;5479;52.046;6.314;2022-07-11T11:24:04;1.58;;;0.98;;
10851;SDS011;5479;52.046;6.314;2022-07-11T11:26:48;0.90;;;0.90;;
10851;SDS011;5479;52.046;6.314;2022-07-11T11:29:20;1.67;;;1.00;;
10851;SDS011;5479;52.046;6.314;2022-07-11T11:31:50;1.50;;;1.23;;
10851;SDS011;5479;52.046;6.314;2022-07-11T11:34:20;1.52;;;1.10;;
10851;SDS011;5479;52.046;6.314;2022-07-11T11:36:54;2.45;;;0.95;;
10851;SDS011;5479;52.046;6.314;2022-07-11T11:39:24;2.15;;;1.05;;
10851;SDS011;5479;52.046;6.314;2022-07-11T11:41:54;0.77;;;0.70;;
10851;SDS011;5479;52.046;6.314;2022-07-11T11:44:28;1.02;;;0.80;;
10851;SDS011;5479;52.046;6.314;2022-07-11T11:46:56;1.33;;;1.00;;
10851;SDS011;5479;52.046;6.314;2022-07-11T11:49:24;1.13;;;0.80;;
10851;SDS011;5479;52.046;6.314;2022-07-11T11:51:55;1.00;;;1.00;;
10851;SDS011;5479;52.046;6.314;2022-07-11T11:54:24;1.25;;;1.02;;
10851;SDS011;5479;52.046;6.314;2022-07-11T11:56:53;1.13;;;0.98;;
10851;SDS011;5479;52.046;6.314;2022-07-11T11:59:28;1.52;;;1.02;;
10851;SDS011;5479;52.046;6.314;2022-07-11T12:01:56;1.52;;;0.95;;
10851;SDS011;5479;52.046;6.314;2022-07-11T12:04:29;2.67;;;1.20;;
10851;SDS011;5479;52.046;6.314;2022-07-11T12:06:59;1.38;;;1.00;;
10851;SDS011;5479;52.046;6.314;2022-07-11T12:09:28;1.25;;;0.93;;
10851;SDS011;5479;52.046;6.314;2022-07-11T12:12:17;1.15;;;1.00;;
10851;SDS011;5479;52.046;6.314;2022-07-11T12:15:04;1.23;;;0.90;;
10851;SDS011;5479;52.046;6.314;2022-07-11T12:17:34;0.77;;;0.77;;
10851;SDS011;5479;52.046;6.314;2022-07-11T12:20:03;1.05;;;0.90;;
10851;SDS011;5479;52.046;6.314;2022-07-11T12:22:41;0.70;;;0.70;;
10851;SDS011;5479;52.046;6.314;2022-07-11T12:25:10;1.25;;;0.88;;
10851;SDS011;5479;52.046;6.314;2022-07-11T12:27:38;1.48;;;1.23;;
10851;SDS011;5479;52.046;6.314;2022-07-11T12:30:07;0.85;;;0.80;;
10851;SDS011;5479;52.046;6.314;2022-07-11T12:33:01;1.15;;;0.90;;
10851;SDS011;5479;52.046;6.314;2022-07-11T12:35:30;1.70;;;0.98;;
10851;SDS011;5479;52.046;6.314;2022-07-11T12:37:59;0.90;;;0.70;;
10851;SDS011;5479;52.046;6.314;2022-07-11T12:40:27;1.10;;;0.93;;
10851;SDS011;5479;52.046;6.314;2022-07-11T12:42:55;2.33;;;0.85;;
10851;SDS011;5479;52.046;6.314;2022-07-11T12:45:23;1.02;;;0.93;;
10851;SDS011;5479;52.046;6.314;2022-07-11T12:47:50;1.40;;;0.90;;
10851;SDS011;5479;52.046;6.314;2022-07-11T12:50:20;1.95;;;1.00;;
10851;SDS011;5479;52.046;6.314;2022-07-11T12:52:50;1.60;;;0.98;;
10851;SDS011;5479;52.046;6.314;2022-07-11T12:55:21;2.72;;;1.20;;
10851;SDS011;5479;52.046;6.314;2022-07-11T12:58:06;2.17;;;0.95;;
10851;SDS011;5479;52.046;6.314;2022-07-11T13:00:36;2.40;;;1.20;;
10851;SDS011;5479;52.046;6.314;2022-07-11T13:03:06;2.05;;;1.13;;
10851;SDS011;5479;52.046;6.314;2022-07-11T13:05:47;1.77;;;1.08;;
10851;SDS011;5479;52.046;6.314;2022-07-11T13:08:23;0.93;;;0.93;;
10851;SDS011;5479;52.046;6.314;2022-07-11T13:11:13;1.88;;;0.90;;
10851;SDS011;5479;52.046;6.314;2022-07-11T13:13:42;1.42;;;0.90;;
10851;SDS011;5479;52.046;6.314;2022-07-11T13:16:13;1.17;;;0.70;;
10851;SDS011;5479;52.046;6.314;2022-07-11T13:18:42;2.45;;;1.00;;
10851;SDS011;5479;52.046;6.314;2022-07-11T13:21:11;1.02;;;0.90;;
10851;SDS011;5479;52.046;6.314;2022-07-11T13:23:40;2.20;;;0.90;;
10851;SDS011;5479;52.046;6.314;2022-07-11T13:26:08;2.13;;;1.38;;
10851;SDS011;5479;52.046;6.314;2022-07-11T13:28:39;2.85;;;1.08;;
10851;SDS011;5479;52.046;6.314;2022-07-11T13:31:07;0.93;;;0.82;;
10851;SDS011;5479;52.046;6.314;2022-07-11T13:33:35;1.40;;;0.93;;
10851;SDS011;5479;52.046;6.314;2022-07-11T13:36:05;1.75;;;1.00;;
10851;SDS011;5479;52.046;6.314;2022-07-11T13:38:33;2.47;;;0.90;;
10851;SDS011;5479;52.046;6.314;2022-07-11T13:41:01;1.15;;;1.05;;
10851;SDS011;5479;52.046;6.314;2022-07-11T13:43:28;1.65;;;0.90;;
10851;SDS011;5479;52.046;6.314;2022-07-11T13:45:58;1.83;;;1.10;;
10851;SDS011;5479;52.046;6.314;2022-07-11T13:48:26;1.23;;;0.80;;
10851;SDS011;5479;52.046;6.314;2022-07-11T13:50:55;3.10;;;1.30;;
10851;SDS011;5479;52.046;6.314;2022-07-11T13:53:23;2.08;;;1.30;;
10851;SDS011;5479;52.046;6.314;2022-07-11T13:55:51;2.80;;;1.05;;
10851;SDS011;5479;52.046;6.314;2022-07-11T13:58:20;2.92;;;1.10;;
10851;SDS011;5479;52.046;6.314;2022-07-11T14:00:54;1.77;;;1.15;;
10851;SDS011;5479;52.046;6.314;2022-07-11T14:03:23;1.23;;;1.00;;
10851;SDS011;5479;52.046;6.314;2022-07-11T14:05:51;1.15;;;0.98;;
10851;SDS011;5479;52.046;6.314;2022-07-11T14:08:19;1.17;;;1.00;;
10851;SDS011;5479;52.046;6.314;2022-07-11T14:10:47;1.10;;;1.00;;
10851;SDS011;5479;52.046;6.314;2022-07-11T14:13:15;3.50;;;1.20;;
10851;SDS011;5479;52.046;6.314;2022-07-11T14:15:43;2.22;;;1.30;;
10851;SDS011;5479;52.046;6.314;2022-07-11T14:18:11;1.55;;;1.02;;
10851;SDS011;5479;52.046;6.314;2022-07-11T14:20:41;1.55;;;1.42;;
10851;SDS011;5479;52.046;6.314;2022-07-11T14:23:08;1.00;;;1.00;;
10851;SDS011;5479;52.046;6.314;2022-07-11T14:25:36;1.83;;;1.05;;
10851;SDS011;5479;52.046;6.314;2022-07-11T14:28:04;2.95;;;1.13;;
10851;SDS011;5479;52.046;6.314;2022-07-11T14:30:33;1.38;;;1.27;;
10851;SDS011;5479;52.046;6.314;2022-07-11T14:33:00;2.70;;;1.30;;
10851;SDS011;5479;52.046;6.314;2022-07-11T14:35:29;1.05;;;1.05;;
10851;SDS011;5479;52.046;6.314;2022-07-11T14:38:00;2.53;;;1.17;;
10851;SDS011;5479;52.046;6.314;2022-07-11T14:40:28;1.95;;;1.35;;
10851;SDS011;5479;52.046;6.314;2022-07-11T14:42:57;2.17;;;1.30;;
10851;SDS011;5479;52.046;6.314;2022-07-11T14:45:25;2.17;;;1.40;;
10851;SDS011;5479;52.046;6.314;2022-07-11T14:47:52;2.00;;;1.33;;
10851;SDS011;5479;52.046;6.314;2022-07-11T14:50:22;2.50;;;1.38;;
10851;SDS011;5479;52.046;6.314;2022-07-11T14:52:51;2.33;;;1.20;;
10851;SDS011;5479;52.046;6.314;2022-07-11T14:55:20;2.25;;;1.42;;
10851;SDS011;5479;52.046;6.314;2022-07-11T14:57:49;3.38;;;1.40;;
10851;SDS011;5479;52.046;6.314;2022-07-11T15:00:17;2.35;;;1.55;;
10851;SDS011;5479;52.046;6.314;2022-07-11T15:02:46;2.10;;;1.20;;
10851;SDS011;5479;52.046;6.314;2022-07-11T15:05:32;1.13;;;1.10;;
10851;SDS011;5479;52.046;6.314;2022-07-11T15:07:59;2.47;;;1.40;;
10851;SDS011;5479;52.046;6.314;2022-07-11T15:10:46;1.38;;;1.23;;
10851;SDS011;5479;52.046;6.314;2022-07-11T15:13:31;3.53;;;1.27;;
10851;SDS011;5479;52.046;6.314;2022-07-11T15:15:59;1.30;;;1.20;;
10851;SDS011;5479;52.046;6.314;2022-07-11T15:18:27;1.48;;;1.15;;
10851;SDS011;5479;52.046;6.314;2022-07-11T15:20:55;2.88;;;1.40;;
10851;SDS011;5479;52.046;6.314;2022-07-11T15:23:23;1.00;;;0.93;;
10851;SDS011;5479;52.046;6.314;2022-07-11T15:25:53;1.05;;;1.02;;
10851;SDS011;5479;52.046;6.314;2022-07-11T15:28:21;1.15;;;1.08;;